sensor_id;sensor_type;location;lat;lon;timestamp;P1;durP1;ratioP1;P2;durP2;ratioP2
69629;SDS011;56857;52.212;5.496;2022-07-17T00:01:28;8.93;;;2.30;;
69629;SDS011;56857;52.212;5.496;2022-07-17T00:03:53;6.63;;;3.08;;
69629;SDS011;56857;52.212;5.496;2022-07-17T00:06:18;6.65;;;2.75;;
69629;SDS011;56857;52.212;5.496;2022-07-17T00:08:44;5.32;;;2.20;;
69629;SDS011;56857;52.212;5.496;2022-07-17T00:11:09;5.03;;;2.33;;
69629;SDS011;56857;52.212;5.496;2022-07-17T00:13:35;5.90;;;2.95;;
69629;SDS011;56857;52.212;5.496;2022-07-17T00:16:00;10.55;;;2.70;;
69629;SDS011;56857;52.212;5.496;2022-07-17T00:18:25;7.65;;;2.45;;
69629;SDS011;56857;52.212;5.496;2022-07-17T00:20:51;5.45;;;2.38;;
69629;SDS011;56857;52.212;5.496;2022-07-17T00:23:16;6.70;;;2.30;;
69629;SDS011;56857;52.212;5.496;2022-07-17T00:25:42;6.80;;;2.70;;
69629;SDS011;56857;52.212;5.496;2022-07-17T00:28:07;6.10;;;2.40;;
69629;SDS011;56857;52.212;5.496;2022-07-17T00:30:33;7.55;;;2.50;;
69629;SDS011;56857;52.212;5.496;2022-07-17T00:32:59;7.80;;;2.75;;
69629;SDS011;56857;52.212;5.496;2022-07-17T00:35:24;5.43;;;2.70;;
69629;SDS011;56857;52.212;5.496;2022-07-17T00:37:49;8.13;;;2.83;;
69629;SDS011;56857;52.212;5.496;2022-07-17T00:40:22;5.57;;;3.00;;
69629;SDS011;56857;52.212;5.496;2022-07-17T00:42:48;6.90;;;2.70;;
69629;SDS011;56857;52.212;5.496;2022-07-17T00:45:14;6.03;;;2.47;;
69629;SDS011;56857;52.212;5.496;2022-07-17T00:47:56;6.22;;;2.53;;
69629;SDS011;56857;52.212;5.496;2022-07-17T00:50:33;5.97;;;2.70;;
69629;SDS011;56857;52.212;5.496;2022-07-17T00:53:01;9.52;;;2.83;;
69629;SDS011;56857;52.212;5.496;2022-07-17T00:55:27;5.63;;;2.58;;
69629;SDS011;56857;52.212;5.496;2022-07-17T00:57:52;6.43;;;2.38;;
69629;SDS011;56857;52.212;5.496;2022-07-17T01:00:20;5.30;;;2.75;;
69629;SDS011;56857;52.212;5.496;2022-07-17T01:02:47;5.35;;;2.17;;
69629;SDS011;56857;52.212;5.496;2022-07-17T01:05:15;8.30;;;2.90;;
69629;SDS011;56857;52.212;5.496;2022-07-17T01:07:41;7.57;;;3.45;;
69629;SDS011;56857;52.212;5.496;2022-07-17T01:10:06;4.85;;;2.70;;
69629;SDS011;56857;52.212;5.496;2022-07-17T01:12:32;5.22;;;2.67;;
69629;SDS011;56857;52.212;5.496;2022-07-17T01:14:58;5.57;;;2.70;;
69629;SDS011;56857;52.212;5.496;2022-07-17T01:17:24;4.63;;;2.25;;
69629;SDS011;56857;52.212;5.496;2022-07-17T01:19:49;4.95;;;2.22;;
69629;SDS011;56857;52.212;5.496;2022-07-17T01:22:15;4.38;;;2.05;;
69629;SDS011;56857;52.212;5.496;2022-07-17T01:24:40;4.82;;;2.10;;
69629;SDS011;56857;52.212;5.496;2022-07-17T01:27:06;7.78;;;3.05;;
69629;SDS011;56857;52.212;5.496;2022-07-17T01:29:31;3.17;;;1.63;;
69629;SDS011;56857;52.212;5.496;2022-07-17T01:31:57;3.58;;;1.92;;
69629;SDS011;56857;52.212;5.496;2022-07-17T01:34:22;5.95;;;2.40;;
69629;SDS011;56857;52.212;5.496;2022-07-17T01:36:47;4.95;;;2.08;;
69629;SDS011;56857;52.212;5.496;2022-07-17T01:39:13;4.20;;;2.20;;
69629;SDS011;56857;52.212;5.496;2022-07-17T01:41:38;3.63;;;2.10;;
69629;SDS011;56857;52.212;5.496;2022-07-17T01:44:03;5.40;;;2.10;;
69629;SDS011;56857;52.212;5.496;2022-07-17T01:46:29;6.70;;;2.42;;
69629;SDS011;56857;52.212;5.496;2022-07-17T01:48:54;6.72;;;2.47;;
69629;SDS011;56857;52.212;5.496;2022-07-17T01:51:19;4.00;;;1.88;;
69629;SDS011;56857;52.212;5.496;2022-07-17T01:53:45;3.58;;;1.90;;
69629;SDS011;56857;52.212;5.496;2022-07-17T01:56:10;4.07;;;2.13;;
69629;SDS011;56857;52.212;5.496;2022-07-17T01:58:35;3.92;;;2.10;;
69629;SDS011;56857;52.212;5.496;2022-07-17T02:01:01;3.85;;;1.70;;
69629;SDS011;56857;52.212;5.496;2022-07-17T02:03:27;5.88;;;2.25;;
69629;SDS011;56857;52.212;5.496;2022-07-17T02:05:52;4.35;;;2.10;;
69629;SDS011;56857;52.212;5.496;2022-07-17T02:08:17;5.55;;;2.25;;
69629;SDS011;56857;52.212;5.496;2022-07-17T02:10:43;6.15;;;2.60;;
69629;SDS011;56857;52.212;5.496;2022-07-17T02:13:08;4.25;;;2.05;;
69629;SDS011;56857;52.212;5.496;2022-07-17T02:15:33;6.45;;;2.30;;
69629;SDS011;56857;52.212;5.496;2022-07-17T02:17:59;6.47;;;2.15;;
69629;SDS011;56857;52.212;5.496;2022-07-17T02:20:24;5.13;;;2.05;;
69629;SDS011;56857;52.212;5.496;2022-07-17T02:22:50;6.65;;;2.22;;
69629;SDS011;56857;52.212;5.496;2022-07-17T02:25:15;4.53;;;2.38;;
69629;SDS011;56857;52.212;5.496;2022-07-17T02:27:41;4.95;;;2.55;;
69629;SDS011;56857;52.212;5.496;2022-07-17T02:30:07;5.95;;;2.20;;
69629;SDS011;56857;52.212;5.496;2022-07-17T02:32:35;4.13;;;2.20;;
69629;SDS011;56857;52.212;5.496;2022-07-17T02:35:00;4.85;;;2.10;;
69629;SDS011;56857;52.212;5.496;2022-07-17T02:37:26;4.47;;;2.17;;
69629;SDS011;56857;52.212;5.496;2022-07-17T02:39:51;6.72;;;2.33;;
69629;SDS011;56857;52.212;5.496;2022-07-17T02:42:17;5.35;;;2.40;;
69629;SDS011;56857;52.212;5.496;2022-07-17T02:44:42;4.88;;;2.40;;
69629;SDS011;56857;52.212;5.496;2022-07-17T02:47:07;3.78;;;1.60;;
69629;SDS011;56857;52.212;5.496;2022-07-17T02:49:33;4.53;;;2.15;;
69629;SDS011;56857;52.212;5.496;2022-07-17T02:51:58;5.60;;;2.20;;
69629;SDS011;56857;52.212;5.496;2022-07-17T02:54:23;6.68;;;2.22;;
69629;SDS011;56857;52.212;5.496;2022-07-17T02:56:48;4.32;;;1.83;;
69629;SDS011;56857;52.212;5.496;2022-07-17T02:59:14;6.78;;;1.80;;
69629;SDS011;56857;52.212;5.496;2022-07-17T03:01:39;5.68;;;2.50;;
69629;SDS011;56857;52.212;5.496;2022-07-17T03:04:04;6.78;;;2.38;;
69629;SDS011;56857;52.212;5.496;2022-07-17T03:06:30;6.68;;;2.40;;
69629;SDS011;56857;52.212;5.496;2022-07-17T03:08:55;5.40;;;2.65;;
69629;SDS011;56857;52.212;5.496;2022-07-17T03:11:20;4.75;;;2.20;;
69629;SDS011;56857;52.212;5.496;2022-07-17T03:13:45;5.50;;;2.45;;
69629;SDS011;56857;52.212;5.496;2022-07-17T03:16:11;7.75;;;2.28;;
69629;SDS011;56857;52.212;5.496;2022-07-17T03:18:36;6.40;;;2.20;;
69629;SDS011;56857;52.212;5.496;2022-07-17T03:21:01;7.60;;;2.53;;
69629;SDS011;56857;52.212;5.496;2022-07-17T03:23:27;5.18;;;2.25;;
69629;SDS011;56857;52.212;5.496;2022-07-17T03:25:52;5.35;;;2.00;;
69629;SDS011;56857;52.212;5.496;2022-07-17T03:28:17;5.88;;;2.30;;
69629;SDS011;56857;52.212;5.496;2022-07-17T03:30:43;5.20;;;2.22;;
69629;SDS011;56857;52.212;5.496;2022-07-17T03:33:08;7.75;;;2.45;;
69629;SDS011;56857;52.212;5.496;2022-07-17T03:35:33;4.93;;;2.30;;
69629;SDS011;56857;52.212;5.496;2022-07-17T03:37:58;5.47;;;2.33;;
69629;SDS011;56857;52.212;5.496;2022-07-17T03:40:24;5.65;;;2.10;;
69629;SDS011;56857;52.212;5.496;2022-07-17T03:42:49;4.50;;;2.15;;
69629;SDS011;56857;52.212;5.496;2022-07-17T03:45:15;3.20;;;2.03;;
69629;SDS011;56857;52.212;5.496;2022-07-17T03:47:40;5.05;;;2.03;;
69629;SDS011;56857;52.212;5.496;2022-07-17T03:50:06;3.95;;;2.13;;
69629;SDS011;56857;52.212;5.496;2022-07-17T03:52:32;3.47;;;2.15;;
69629;SDS011;56857;52.212;5.496;2022-07-17T03:54:57;5.18;;;2.35;;
69629;SDS011;56857;52.212;5.496;2022-07-17T03:57:22;5.68;;;2.58;;
69629;SDS011;56857;52.212;5.496;2022-07-17T03:59:47;3.90;;;1.70;;
69629;SDS011;56857;52.212;5.496;2022-07-17T04:02:13;4.63;;;2.40;;
69629;SDS011;56857;52.212;5.496;2022-07-17T04:04:38;4.93;;;1.90;;
69629;SDS011;56857;52.212;5.496;2022-07-17T04:07:03;6.50;;;2.30;;
69629;SDS011;56857;52.212;5.496;2022-07-17T04:09:29;5.10;;;2.17;;
69629;SDS011;56857;52.212;5.496;2022-07-17T04:11:54;5.72;;;2.38;;
69629;SDS011;56857;52.212;5.496;2022-07-17T04:14:19;6.28;;;2.10;;
69629;SDS011;56857;52.212;5.496;2022-07-17T04:16:45;4.55;;;2.22;;
69629;SDS011;56857;52.212;5.496;2022-07-17T04:19:10;4.90;;;2.00;;
69629;SDS011;56857;52.212;5.496;2022-07-17T04:21:35;4.45;;;2.22;;
69629;SDS011;56857;52.212;5.496;2022-07-17T04:24:01;5.00;;;2.20;;
69629;SDS011;56857;52.212;5.496;2022-07-17T04:26:26;5.53;;;2.45;;
69629;SDS011;56857;52.212;5.496;2022-07-17T04:28:51;5.97;;;1.98;;
69629;SDS011;56857;52.212;5.496;2022-07-17T04:31:17;5.90;;;2.70;;
69629;SDS011;56857;52.212;5.496;2022-07-17T04:33:42;4.90;;;2.00;;
69629;SDS011;56857;52.212;5.496;2022-07-17T04:36:07;4.60;;;2.58;;
69629;SDS011;56857;52.212;5.496;2022-07-17T04:38:33;7.50;;;2.47;;
69629;SDS011;56857;52.212;5.496;2022-07-17T04:40:58;5.65;;;2.50;;
69629;SDS011;56857;52.212;5.496;2022-07-17T04:43:24;6.47;;;2.38;;
69629;SDS011;56857;52.212;5.496;2022-07-17T04:45:49;6.45;;;2.40;;
69629;SDS011;56857;52.212;5.496;2022-07-17T04:48:14;6.65;;;2.60;;
69629;SDS011;56857;52.212;5.496;2022-07-17T04:50:40;8.48;;;2.72;;
69629;SDS011;56857;52.212;5.496;2022-07-17T04:53:05;5.45;;;2.17;;
69629;SDS011;56857;52.212;5.496;2022-07-17T04:55:31;7.68;;;2.40;;
69629;SDS011;56857;52.212;5.496;2022-07-17T04:57:56;5.85;;;2.45;;
69629;SDS011;56857;52.212;5.496;2022-07-17T05:00:21;7.28;;;2.50;;
69629;SDS011;56857;52.212;5.496;2022-07-17T05:02:47;5.28;;;2.60;;
69629;SDS011;56857;52.212;5.496;2022-07-17T05:05:12;6.13;;;2.13;;
69629;SDS011;56857;52.212;5.496;2022-07-17T05:07:38;5.88;;;2.88;;
69629;SDS011;56857;52.212;5.496;2022-07-17T05:10:04;4.95;;;2.30;;
69629;SDS011;56857;52.212;5.496;2022-07-17T05:12:30;6.30;;;2.53;;
69629;SDS011;56857;52.212;5.496;2022-07-17T05:14:55;6.65;;;2.50;;
69629;SDS011;56857;52.212;5.496;2022-07-17T05:17:20;7.30;;;3.28;;
69629;SDS011;56857;52.212;5.496;2022-07-17T05:19:46;7.75;;;2.22;;
69629;SDS011;56857;52.212;5.496;2022-07-17T05:22:11;9.15;;;2.17;;
69629;SDS011;56857;52.212;5.496;2022-07-17T05:24:36;5.47;;;2.47;;
69629;SDS011;56857;52.212;5.496;2022-07-17T05:27:02;5.20;;;2.33;;
69629;SDS011;56857;52.212;5.496;2022-07-17T05:29:27;7.07;;;2.17;;
69629;SDS011;56857;52.212;5.496;2022-07-17T05:31:52;5.57;;;2.20;;
69629;SDS011;56857;52.212;5.496;2022-07-17T05:34:18;7.25;;;2.40;;
69629;SDS011;56857;52.212;5.496;2022-07-17T05:36:43;10.25;;;2.78;;
69629;SDS011;56857;52.212;5.496;2022-07-17T05:39:09;7.20;;;2.60;;
69629;SDS011;56857;52.212;5.496;2022-07-17T05:41:34;10.05;;;2.83;;
69629;SDS011;56857;52.212;5.496;2022-07-17T05:44:00;6.90;;;2.53;;
69629;SDS011;56857;52.212;5.496;2022-07-17T05:46:25;6.97;;;2.05;;
69629;SDS011;56857;52.212;5.496;2022-07-17T05:48:50;6.35;;;2.58;;
69629;SDS011;56857;52.212;5.496;2022-07-17T05:51:16;7.68;;;2.60;;
69629;SDS011;56857;52.212;5.496;2022-07-17T05:53:41;7.55;;;2.22;;
69629;SDS011;56857;52.212;5.496;2022-07-17T05:56:07;6.25;;;2.10;;
69629;SDS011;56857;52.212;5.496;2022-07-17T05:58:32;8.55;;;2.90;;
69629;SDS011;56857;52.212;5.496;2022-07-17T06:00:58;9.13;;;2.40;;
69629;SDS011;56857;52.212;5.496;2022-07-17T06:03:23;8.40;;;2.60;;
69629;SDS011;56857;52.212;5.496;2022-07-17T06:05:48;5.65;;;2.15;;
69629;SDS011;56857;52.212;5.496;2022-07-17T06:08:14;5.55;;;2.40;;
69629;SDS011;56857;52.212;5.496;2022-07-17T06:10:39;5.95;;;2.35;;
69629;SDS011;56857;52.212;5.496;2022-07-17T06:13:05;7.40;;;2.50;;
69629;SDS011;56857;52.212;5.496;2022-07-17T06:15:30;7.68;;;2.58;;
69629;SDS011;56857;52.212;5.496;2022-07-17T06:17:55;6.97;;;2.60;;
69629;SDS011;56857;52.212;5.496;2022-07-17T06:20:25;9.30;;;2.40;;
69629;SDS011;56857;52.212;5.496;2022-07-17T06:22:50;9.98;;;2.75;;
69629;SDS011;56857;52.212;5.496;2022-07-17T06:25:15;6.90;;;2.17;;
69629;SDS011;56857;52.212;5.496;2022-07-17T06:27:41;8.98;;;2.72;;
69629;SDS011;56857;52.212;5.496;2022-07-17T06:30:10;7.32;;;2.38;;
69629;SDS011;56857;52.212;5.496;2022-07-17T06:32:36;9.48;;;2.92;;
69629;SDS011;56857;52.212;5.496;2022-07-17T06:35:02;5.35;;;2.10;;
69629;SDS011;56857;52.212;5.496;2022-07-17T06:37:27;9.40;;;2.60;;
69629;SDS011;56857;52.212;5.496;2022-07-17T06:39:52;8.48;;;2.75;;
69629;SDS011;56857;52.212;5.496;2022-07-17T06:42:18;7.57;;;2.55;;
69629;SDS011;56857;52.212;5.496;2022-07-17T06:44:43;8.45;;;2.45;;
69629;SDS011;56857;52.212;5.496;2022-07-17T06:47:08;5.68;;;2.47;;
69629;SDS011;56857;52.212;5.496;2022-07-17T06:49:34;5.38;;;1.85;;
69629;SDS011;56857;52.212;5.496;2022-07-17T06:51:59;6.35;;;2.08;;
69629;SDS011;56857;52.212;5.496;2022-07-17T06:54:25;7.25;;;2.15;;
69629;SDS011;56857;52.212;5.496;2022-07-17T06:56:50;8.73;;;2.50;;
69629;SDS011;56857;52.212;5.496;2022-07-17T06:59:16;11.88;;;2.35;;
69629;SDS011;56857;52.212;5.496;2022-07-17T07:01:41;8.25;;;2.40;;
69629;SDS011;56857;52.212;5.496;2022-07-17T07:04:07;10.85;;;2.65;;
69629;SDS011;56857;52.212;5.496;2022-07-17T07:06:32;4.47;;;2.10;;
69629;SDS011;56857;52.212;5.496;2022-07-17T07:08:57;7.45;;;2.13;;
69629;SDS011;56857;52.212;5.496;2022-07-17T07:11:23;8.88;;;2.85;;
69629;SDS011;56857;52.212;5.496;2022-07-17T07:13:49;8.95;;;2.55;;
69629;SDS011;56857;52.212;5.496;2022-07-17T07:16:14;4.50;;;2.00;;
69629;SDS011;56857;52.212;5.496;2022-07-17T07:18:40;5.22;;;2.17;;
69629;SDS011;56857;52.212;5.496;2022-07-17T07:21:05;7.05;;;2.00;;
69629;SDS011;56857;52.212;5.496;2022-07-17T07:23:31;5.82;;;1.95;;
69629;SDS011;56857;52.212;5.496;2022-07-17T07:25:56;6.32;;;2.20;;
69629;SDS011;56857;52.212;5.496;2022-07-17T07:28:21;6.57;;;1.70;;
69629;SDS011;56857;52.212;5.496;2022-07-17T07:30:47;6.35;;;1.50;;
69629;SDS011;56857;52.212;5.496;2022-07-17T07:33:12;8.73;;;2.50;;
69629;SDS011;56857;52.212;5.496;2022-07-17T07:35:38;6.00;;;1.60;;
69629;SDS011;56857;52.212;5.496;2022-07-17T07:38:04;6.85;;;2.08;;
69629;SDS011;56857;52.212;5.496;2022-07-17T07:40:29;5.78;;;2.05;;
69629;SDS011;56857;52.212;5.496;2022-07-17T07:42:55;5.95;;;1.77;;
69629;SDS011;56857;52.212;5.496;2022-07-17T07:45:20;6.00;;;1.60;;
69629;SDS011;56857;52.212;5.496;2022-07-17T07:47:47;5.80;;;1.55;;
69629;SDS011;56857;52.212;5.496;2022-07-17T07:50:13;5.50;;;1.70;;
69629;SDS011;56857;52.212;5.496;2022-07-17T07:52:39;8.10;;;2.35;;
69629;SDS011;56857;52.212;5.496;2022-07-17T07:55:06;5.22;;;1.73;;
69629;SDS011;56857;52.212;5.496;2022-07-17T07:57:32;8.73;;;1.90;;
69629;SDS011;56857;52.212;5.496;2022-07-17T07:59:57;4.28;;;1.50;;
69629;SDS011;56857;52.212;5.496;2022-07-17T08:02:22;6.68;;;1.90;;
69629;SDS011;56857;52.212;5.496;2022-07-17T08:04:48;4.05;;;1.52;;
69629;SDS011;56857;52.212;5.496;2022-07-17T08:07:13;5.45;;;2.17;;
69629;SDS011;56857;52.212;5.496;2022-07-17T08:09:39;8.38;;;1.98;;
69629;SDS011;56857;52.212;5.496;2022-07-17T08:12:04;7.22;;;1.95;;
69629;SDS011;56857;52.212;5.496;2022-07-17T08:14:30;5.55;;;1.48;;
69629;SDS011;56857;52.212;5.496;2022-07-17T08:16:55;5.80;;;1.60;;
69629;SDS011;56857;52.212;5.496;2022-07-17T08:19:20;4.18;;;1.50;;
69629;SDS011;56857;52.212;5.496;2022-07-17T08:21:46;7.13;;;1.70;;
69629;SDS011;56857;52.212;5.496;2022-07-17T08:24:11;7.38;;;1.80;;
69629;SDS011;56857;52.212;5.496;2022-07-17T08:26:36;7.18;;;1.80;;
69629;SDS011;56857;52.212;5.496;2022-07-17T08:29:02;8.40;;;1.98;;
69629;SDS011;56857;52.212;5.496;2022-07-17T08:31:27;5.10;;;1.77;;
69629;SDS011;56857;52.212;5.496;2022-07-17T08:33:53;6.18;;;1.52;;
69629;SDS011;56857;52.212;5.496;2022-07-17T08:36:18;7.03;;;1.90;;
69629;SDS011;56857;52.212;5.496;2022-07-17T08:38:43;7.25;;;2.47;;
69629;SDS011;56857;52.212;5.496;2022-07-17T08:41:09;7.13;;;2.05;;
69629;SDS011;56857;52.212;5.496;2022-07-17T08:43:34;6.20;;;1.80;;
69629;SDS011;56857;52.212;5.496;2022-07-17T08:45:59;6.97;;;1.55;;
69629;SDS011;56857;52.212;5.496;2022-07-17T08:48:25;4.93;;;1.70;;
69629;SDS011;56857;52.212;5.496;2022-07-17T08:50:52;6.38;;;1.52;;
69629;SDS011;56857;52.212;5.496;2022-07-17T08:53:17;10.95;;;2.05;;
69629;SDS011;56857;52.212;5.496;2022-07-17T08:55:43;4.65;;;1.55;;
69629;SDS011;56857;52.212;5.496;2022-07-17T08:58:13;3.65;;;1.98;;
69629;SDS011;56857;52.212;5.496;2022-07-17T09:00:39;5.35;;;1.70;;
69629;SDS011;56857;52.212;5.496;2022-07-17T09:03:07;9.15;;;1.90;;
69629;SDS011;56857;52.212;5.496;2022-07-17T09:05:39;5.40;;;1.45;;
69629;SDS011;56857;52.212;5.496;2022-07-17T09:08:06;5.57;;;1.92;;
69629;SDS011;56857;52.212;5.496;2022-07-17T09:10:37;7.88;;;1.85;;
69629;SDS011;56857;52.212;5.496;2022-07-17T09:15:52;5.05;;;1.65;;
69629;SDS011;56857;52.212;5.496;2022-07-17T09:18:20;5.75;;;1.73;;
69629;SDS011;56857;52.212;5.496;2022-07-17T09:20:49;9.25;;;2.03;;
69629;SDS011;56857;52.212;5.496;2022-07-17T09:23:17;7.70;;;2.05;;
69629;SDS011;56857;52.212;5.496;2022-07-17T09:25:44;5.00;;;1.52;;
69629;SDS011;56857;52.212;5.496;2022-07-17T09:28:12;5.10;;;1.55;;
69629;SDS011;56857;52.212;5.496;2022-07-17T09:30:40;5.07;;;1.63;;
69629;SDS011;56857;52.212;5.496;2022-07-17T09:33:07;5.38;;;1.65;;
69629;SDS011;56857;52.212;5.496;2022-07-17T09:35:43;7.53;;;1.83;;
69629;SDS011;56857;52.212;5.496;2022-07-17T09:38:29;5.82;;;1.77;;
69629;SDS011;56857;52.212;5.496;2022-07-17T09:41:12;5.35;;;1.67;;
69629;SDS011;56857;52.212;5.496;2022-07-17T09:43:52;5.68;;;1.70;;
69629;SDS011;56857;52.212;5.496;2022-07-17T09:46:28;6.15;;;1.73;;
69629;SDS011;56857;52.212;5.496;2022-07-17T09:48:57;7.20;;;2.08;;
69629;SDS011;56857;52.212;5.496;2022-07-17T09:51:28;8.85;;;1.95;;
69629;SDS011;56857;52.212;5.496;2022-07-17T09:53:56;5.00;;;1.85;;
69629;SDS011;56857;52.212;5.496;2022-07-17T09:56:24;5.57;;;1.60;;
69629;SDS011;56857;52.212;5.496;2022-07-17T09:58:52;4.50;;;1.40;;
69629;SDS011;56857;52.212;5.496;2022-07-17T10:01:25;6.28;;;1.65;;
69629;SDS011;56857;52.212;5.496;2022-07-17T10:03:50;4.72;;;1.27;;
69629;SDS011;56857;52.212;5.496;2022-07-17T10:06:16;8.70;;;1.65;;
69629;SDS011;56857;52.212;5.496;2022-07-17T10:08:41;7.57;;;1.42;;
69629;SDS011;56857;52.212;5.496;2022-07-17T10:11:07;5.88;;;1.42;;
69629;SDS011;56857;52.212;5.496;2022-07-17T10:13:35;5.13;;;1.60;;
69629;SDS011;56857;52.212;5.496;2022-07-17T10:16:04;7.43;;;2.05;;
69629;SDS011;56857;52.212;5.496;2022-07-17T10:18:40;4.68;;;1.50;;
69629;SDS011;56857;52.212;5.496;2022-07-17T10:21:10;6.82;;;1.63;;
69629;SDS011;56857;52.212;5.496;2022-07-17T10:26:03;7.77;;;1.70;;
69629;SDS011;56857;52.212;5.496;2022-07-17T10:28:39;5.13;;;1.48;;
69629;SDS011;56857;52.212;5.496;2022-07-17T10:31:09;7.07;;;1.52;;
69629;SDS011;56857;52.212;5.496;2022-07-17T10:33:53;6.57;;;1.50;;
69629;SDS011;56857;52.212;5.496;2022-07-17T10:36:38;5.13;;;1.42;;
69629;SDS011;56857;52.212;5.496;2022-07-17T10:39:14;3.97;;;1.35;;
69629;SDS011;56857;52.212;5.496;2022-07-17T10:41:42;5.70;;;1.40;;
69629;SDS011;56857;52.212;5.496;2022-07-17T10:44:08;5.03;;;1.60;;
69629;SDS011;56857;52.212;5.496;2022-07-17T10:46:34;4.80;;;1.40;;
69629;SDS011;56857;52.212;5.496;2022-07-17T10:48:59;5.45;;;1.60;;
69629;SDS011;56857;52.212;5.496;2022-07-17T10:51:26;5.10;;;1.60;;
69629;SDS011;56857;52.212;5.496;2022-07-17T10:53:55;5.75;;;1.58;;
69629;SDS011;56857;52.212;5.496;2022-07-17T10:56:21;4.70;;;1.50;;
69629;SDS011;56857;52.212;5.496;2022-07-17T10:58:46;7.45;;;1.80;;
69629;SDS011;56857;52.212;5.496;2022-07-17T11:01:12;5.82;;;1.58;;
69629;SDS011;56857;52.212;5.496;2022-07-17T11:03:54;5.57;;;1.60;;
69629;SDS011;56857;52.212;5.496;2022-07-17T11:06:31;6.28;;;1.77;;
69629;SDS011;56857;52.212;5.496;2022-07-17T11:09:10;6.18;;;1.60;;
69629;SDS011;56857;52.212;5.496;2022-07-17T11:11:37;5.25;;;1.55;;
69629;SDS011;56857;52.212;5.496;2022-07-17T11:16:34;3.72;;;1.40;;
69629;SDS011;56857;52.212;5.496;2022-07-17T11:19:00;5.35;;;1.60;;
69629;SDS011;56857;52.212;5.496;2022-07-17T11:21:25;5.47;;;1.50;;
69629;SDS011;56857;52.212;5.496;2022-07-17T11:23:52;6.40;;;1.63;;
69629;SDS011;56857;52.212;5.496;2022-07-17T11:26:19;6.63;;;1.63;;
69629;SDS011;56857;52.212;5.496;2022-07-17T11:28:45;11.15;;;1.70;;
69629;SDS011;56857;52.212;5.496;2022-07-17T11:33:54;4.50;;;1.40;;
69629;SDS011;56857;52.212;5.496;2022-07-17T11:36:25;4.97;;;1.40;;
69629;SDS011;56857;52.212;5.496;2022-07-17T11:38:54;6.45;;;2.10;;
69629;SDS011;56857;52.212;5.496;2022-07-17T11:41:21;6.53;;;1.90;;
69629;SDS011;56857;52.212;5.496;2022-07-17T11:43:57;4.75;;;1.50;;
69629;SDS011;56857;52.212;5.496;2022-07-17T11:46:22;7.35;;;2.00;;
69629;SDS011;56857;52.212;5.496;2022-07-17T11:48:47;4.78;;;1.83;;
69629;SDS011;56857;52.212;5.496;2022-07-17T11:51:13;8.27;;;1.75;;
69629;SDS011;56857;52.212;5.496;2022-07-17T11:53:38;7.25;;;2.00;;
69629;SDS011;56857;52.212;5.496;2022-07-17T11:56:04;5.97;;;1.80;;
69629;SDS011;56857;52.212;5.496;2022-07-17T11:58:40;8.45;;;1.85;;
69629;SDS011;56857;52.212;5.496;2022-07-17T12:01:07;9.70;;;1.73;;
69629;SDS011;56857;52.212;5.496;2022-07-17T12:03:32;9.02;;;2.17;;
69629;SDS011;56857;52.212;5.496;2022-07-17T12:05:58;5.57;;;1.70;;
69629;SDS011;56857;52.212;5.496;2022-07-17T12:08:23;5.53;;;1.50;;
69629;SDS011;56857;52.212;5.496;2022-07-17T12:10:58;5.15;;;1.80;;
69629;SDS011;56857;52.212;5.496;2022-07-17T12:13:36;5.65;;;2.05;;
69629;SDS011;56857;52.212;5.496;2022-07-17T12:16:03;5.05;;;1.70;;
69629;SDS011;56857;52.212;5.496;2022-07-17T12:18:43;7.00;;;1.95;;
69629;SDS011;56857;52.212;5.496;2022-07-17T12:21:08;7.25;;;1.80;;
69629;SDS011;56857;52.212;5.496;2022-07-17T12:23:37;5.82;;;1.70;;
69629;SDS011;56857;52.212;5.496;2022-07-17T12:26:08;4.70;;;1.85;;
69629;SDS011;56857;52.212;5.496;2022-07-17T12:28:34;5.75;;;1.83;;
69629;SDS011;56857;52.212;5.496;2022-07-17T12:30:59;6.20;;;1.85;;
69629;SDS011;56857;52.212;5.496;2022-07-17T12:33:25;4.03;;;1.60;;
69629;SDS011;56857;52.212;5.496;2022-07-17T12:35:50;4.47;;;1.73;;
69629;SDS011;56857;52.212;5.496;2022-07-17T12:38:15;5.97;;;1.80;;
69629;SDS011;56857;52.212;5.496;2022-07-17T12:40:41;5.35;;;1.80;;
69629;SDS011;56857;52.212;5.496;2022-07-17T12:43:06;4.85;;;1.55;;
69629;SDS011;56857;52.212;5.496;2022-07-17T12:45:33;5.43;;;1.63;;
69629;SDS011;56857;52.212;5.496;2022-07-17T12:47:59;5.35;;;1.90;;
69629;SDS011;56857;52.212;5.496;2022-07-17T12:50:25;5.22;;;1.90;;
69629;SDS011;56857;52.212;5.496;2022-07-17T12:52:50;7.10;;;2.20;;
69629;SDS011;56857;52.212;5.496;2022-07-17T12:55:15;6.65;;;1.90;;
69629;SDS011;56857;52.212;5.496;2022-07-17T12:57:40;6.68;;;1.90;;
69629;SDS011;56857;52.212;5.496;2022-07-17T13:00:06;5.07;;;1.70;;
69629;SDS011;56857;52.212;5.496;2022-07-17T13:02:32;4.75;;;1.83;;
69629;SDS011;56857;52.212;5.496;2022-07-17T13:04:57;5.22;;;1.83;;
69629;SDS011;56857;52.212;5.496;2022-07-17T13:07:23;6.13;;;1.67;;
69629;SDS011;56857;52.212;5.496;2022-07-17T13:09:48;4.38;;;1.60;;
69629;SDS011;56857;52.212;5.496;2022-07-17T13:12:13;4.93;;;1.92;;
69629;SDS011;56857;52.212;5.496;2022-07-17T13:14:38;5.45;;;2.00;;
69629;SDS011;56857;52.212;5.496;2022-07-17T13:17:04;5.63;;;2.05;;
69629;SDS011;56857;52.212;5.496;2022-07-17T13:19:29;5.15;;;1.80;;
69629;SDS011;56857;52.212;5.496;2022-07-17T13:21:54;5.68;;;1.70;;
69629;SDS011;56857;52.212;5.496;2022-07-17T13:24:20;7.05;;;2.00;;
69629;SDS011;56857;52.212;5.496;2022-07-17T13:26:45;25.67;;;2.50;;
69629;SDS011;56857;52.212;5.496;2022-07-17T13:29:10;4.18;;;1.83;;
69629;SDS011;56857;52.212;5.496;2022-07-17T13:31:36;6.75;;;2.17;;
69629;SDS011;56857;52.212;5.496;2022-07-17T13:34:02;5.68;;;2.20;;
69629;SDS011;56857;52.212;5.496;2022-07-17T13:36:28;5.60;;;2.10;;
69629;SDS011;56857;52.212;5.496;2022-07-17T13:38:53;5.60;;;1.80;;
69629;SDS011;56857;52.212;5.496;2022-07-17T13:41:19;5.30;;;2.20;;
69629;SDS011;56857;52.212;5.496;2022-07-17T13:43:44;7.95;;;2.33;;
69629;SDS011;56857;52.212;5.496;2022-07-17T13:46:09;5.93;;;2.10;;
69629;SDS011;56857;52.212;5.496;2022-07-17T13:48:35;6.43;;;2.33;;
69629;SDS011;56857;52.212;5.496;2022-07-17T13:51:00;5.18;;;2.13;;
69629;SDS011;56857;52.212;5.496;2022-07-17T13:53:25;5.93;;;2.38;;
69629;SDS011;56857;52.212;5.496;2022-07-17T13:55:50;8.98;;;2.47;;
69629;SDS011;56857;52.212;5.496;2022-07-17T13:58:16;5.78;;;2.17;;
69629;SDS011;56857;52.212;5.496;2022-07-17T14:00:41;6.60;;;2.40;;
69629;SDS011;56857;52.212;5.496;2022-07-17T14:03:07;7.25;;;2.38;;
69629;SDS011;56857;52.212;5.496;2022-07-17T14:05:32;8.27;;;2.67;;
69629;SDS011;56857;52.212;5.496;2022-07-17T14:07:57;6.90;;;2.65;;
69629;SDS011;56857;52.212;5.496;2022-07-17T14:10:22;7.53;;;2.75;;
69629;SDS011;56857;52.212;5.496;2022-07-17T14:12:48;7.00;;;2.65;;
69629;SDS011;56857;52.212;5.496;2022-07-17T14:15:13;7.80;;;2.45;;
69629;SDS011;56857;52.212;5.496;2022-07-17T14:17:38;7.47;;;2.60;;
69629;SDS011;56857;52.212;5.496;2022-07-17T14:20:04;6.15;;;2.53;;
69629;SDS011;56857;52.212;5.496;2022-07-17T14:22:30;5.63;;;2.40;;
69629;SDS011;56857;52.212;5.496;2022-07-17T14:24:55;8.27;;;2.60;;
69629;SDS011;56857;52.212;5.496;2022-07-17T14:27:21;5.70;;;2.55;;
69629;SDS011;56857;52.212;5.496;2022-07-17T14:29:46;6.45;;;2.90;;
69629;SDS011;56857;52.212;5.496;2022-07-17T14:32:12;6.93;;;2.78;;
69629;SDS011;56857;52.212;5.496;2022-07-17T14:34:37;6.35;;;2.60;;
69629;SDS011;56857;52.212;5.496;2022-07-17T14:37:02;7.55;;;2.90;;
69629;SDS011;56857;52.212;5.496;2022-07-17T14:39:27;6.85;;;3.00;;
69629;SDS011;56857;52.212;5.496;2022-07-17T14:41:53;7.07;;;3.38;;
69629;SDS011;56857;52.212;5.496;2022-07-17T14:44:18;6.90;;;2.90;;
69629;SDS011;56857;52.212;5.496;2022-07-17T14:46:44;7.65;;;3.40;;
69629;SDS011;56857;52.212;5.496;2022-07-17T14:49:09;6.68;;;2.75;;
69629;SDS011;56857;52.212;5.496;2022-07-17T14:51:34;7.65;;;2.70;;
69629;SDS011;56857;52.212;5.496;2022-07-17T14:54:00;7.00;;;3.03;;